Aérodrome :
LOGIN :

S'inscrire | Disclaimer

   EN    FR    IT 

 










Légende :    VFR   VFR Marginal   IFR   IFR Intensif   IFR Très Intensif
Visi : 
Plafond : 
>= 8 km
>= 3000ft
5 à 8 km
1000 à 3000 ft
1500m à 5 km
500 à 1000 ft
800 à 1500m
200 à 500 ft
< 800m
< 200 ft
Symboles :   Orages  Brouillard  Fortes neiges  Fortes précipitations  Vent > 20 kt
SIGMETs :   Divers  Orages  Givrage  Turbulence  Onde Orograph.  Cendres Volcan.







- Altitude de l'aérodrome : 1234 ft
- Code IATA : LUX


ELLX - Luxembourg Findel

DERNIER METAR :
  • 181750Z 20006KT CAVOK 09/02 Q1017 NOSIG

METARs EXPIRÉS :
  • 181720Z 20006KT CAVOK 09/02 Q1017 NOSIG
  • 181650Z 21008KT CAVOK 11/02 Q1017 NOSIG
  • 181620Z 22008KT 190V250 CAVOK 11/02 Q1017 NOSIG
  • 181550Z 22007KT CAVOK 12/01 Q1017 NOSIG
  • 181520Z 19007KT 160V220 CAVOK 12/02 Q1017 NOSIG

TAF TAF ELLX
Valide du 18 à 18h jusqu'au 20 à 00h UTC


181700Z 1818/1924 21008KT CAVOK
BECMG 1902/1904 5000 BR SCT020 BKN100
TEMPO 1905/1910 2500 -RADZ BR SCT005 BKN009
BECMG 1910/1912 27007KT 9999 NSW SCT025
BECMG 1919/1921 20005KT CAVOK
ATIS : +352 4798 27300
Météo : +352 4798 27010 / 27050
Pas de NOTAMs connus pour ce terrain.



MET'MAP, la Météo Aéronautique d'un coup d'oeil ! - Copyright ORBIFLY Décembre 2007 - Disclaimer

ORBIFLY MET'MAP TEAM :

Programmation & Développement : Alexandra Zaïnal
Conception & Développement : Baudouin d'Aumeries
Co-Programmation & Développement : Marc-Olivier Méhu
Soutien technique & logistique : Manuel Goepfert

Contact : metmap@orbifly.com




SOURCES & CREDITS :

   NOAA